createdAt,value
2022-12-12T00:01:51.675Z,-1.00
2022-12-12T00:04:20.205Z,-1.00
2022-12-12T00:06:48.389Z,-1.00
2022-12-12T00:09:16.353Z,-0.90
2022-12-12T00:11:45.075Z,-0.90
2022-12-12T00:14:13.198Z,-0.90
2022-12-12T00:16:41.130Z,-1.00
2022-12-12T00:19:09.075Z,-1.00
2022-12-12T00:21:37.003Z,-1.10
2022-12-12T00:24:05.060Z,-1.10
2022-12-12T00:26:35.503Z,-1.10
2022-12-12T00:29:04.679Z,-1.00
2022-12-12T00:31:33.132Z,-1.10
2022-12-12T00:34:01.109Z,-1.00
2022-12-12T00:36:31.234Z,-1.00
2022-12-12T00:39:00.320Z,-1.00
2022-12-12T00:41:28.671Z,-1.00
2022-12-12T00:43:56.659Z,-1.00
2022-12-12T00:46:26.531Z,-1.00
2022-12-12T00:48:59.714Z,-1.10
2022-12-12T00:51:30.303Z,-1.20
2022-12-12T00:54:02.054Z,-1.20
2022-12-12T00:56:30.764Z,-1.20
2022-12-12T00:58:58.714Z,-1.10
2022-12-12T01:01:30.053Z,-1.10
2022-12-12T01:04:00.114Z,-1.10
2022-12-12T01:06:29.824Z,-1.20
2022-12-12T01:08:58.258Z,-1.10
2022-12-12T01:11:26.690Z,-1.10
2022-12-12T01:13:56.061Z,-1.10
2022-12-12T01:16:25.494Z,-1.10
2022-12-12T01:18:53.520Z,-1.10
2022-12-12T01:21:22.235Z,-1.20
2022-12-12T01:23:50.364Z,-1.10
2022-12-12T01:26:21.769Z,-1.10
2022-12-12T01:28:49.884Z,-1.10
2022-12-12T01:31:18.968Z,-1.10
2022-12-12T01:33:47.334Z,-1.10
2022-12-12T01:36:17.693Z,-1.10
2022-12-12T01:38:50.336Z,-1.10
2022-12-12T01:41:19.434Z,-1.00
2022-12-12T01:43:48.275Z,-1.00
2022-12-12T01:46:45.388Z,-1.00
2022-12-12T01:49:25.219Z,-0.90
2022-12-12T01:52:04.226Z,-0.90
2022-12-12T01:54:35.896Z,-0.90
2022-12-12T01:57:09.517Z,-0.90
2022-12-12T01:59:39.275Z,-1.00
2022-12-12T02:02:08.396Z,-1.00
2022-12-12T02:04:36.956Z,-1.00
2022-12-12T02:07:05.132Z,-1.00
2022-12-12T02:09:34.631Z,-1.00
2022-12-12T02:12:02.599Z,-1.00
2022-12-12T02:14:35.592Z,-1.00
2022-12-12T02:17:17.411Z,-1.00
2022-12-12T02:19:56.643Z,-1.00
2022-12-12T02:23:00.975Z,-1.00
2022-12-12T02:26:00.696Z,-1.00
2022-12-12T02:28:49.635Z,-1.00
2022-12-12T02:31:29.379Z,-1.00
2022-12-12T02:34:19.439Z,-0.90
2022-12-12T02:37:12.378Z,-0.90
2022-12-12T02:39:58.954Z,-1.00
2022-12-12T02:42:48.165Z,-1.00
2022-12-12T02:45:29.407Z,-1.00
2022-12-12T02:48:13.468Z,-1.00
2022-12-12T02:50:43.155Z,-1.10
2022-12-12T02:53:12.081Z,-1.00
2022-12-12T02:55:40.151Z,-1.00
2022-12-12T02:58:08.199Z,-1.00
2022-12-12T03:00:46.738Z,-1.00
2022-12-12T03:03:57.370Z,-1.00
2022-12-12T03:06:54.937Z,-1.00
2022-12-12T03:10:02.407Z,-1.00
2022-12-12T03:12:50.072Z,-1.00
2022-12-12T03:15:25.395Z,-1.00
2022-12-12T03:18:23.189Z,-1.10
2022-12-12T03:20:54.691Z,-1.10
2022-12-12T03:23:39.094Z,-1.10
2022-12-12T03:26:13.250Z,-1.10
2022-12-12T03:29:15.423Z,-1.10
2022-12-12T03:31:49.699Z,-1.10
2022-12-12T03:34:27.382Z,-1.10
2022-12-12T03:37:03.555Z,-1.10
2022-12-12T03:39:53.433Z,-1.20
2022-12-12T03:42:31.782Z,-1.10
2022-12-12T03:45:07.783Z,-1.10
2022-12-12T03:48:02.091Z,-1.10
2022-12-12T03:50:38.935Z,-1.10
2022-12-12T03:53:24.171Z,-1.10
2022-12-12T03:56:25.420Z,-1.10
2022-12-12T03:59:27.613Z,-1.20
2022-12-12T04:02:22.372Z,-1.20
2022-12-12T04:05:00.378Z,-1.20
2022-12-12T04:07:39.028Z,-1.20
2022-12-12T04:10:26.696Z,-1.20
2022-12-12T04:13:23.467Z,-1.20
2022-12-12T04:16:13.257Z,-1.10
2022-12-12T04:18:55.115Z,-1.20
2022-12-12T04:21:53.717Z,-1.20
2022-12-12T04:24:41.894Z,-1.10
2022-12-12T04:27:26.955Z,-1.10
2022-12-12T04:30:11.800Z,-1.20
2022-12-12T04:32:55.467Z,-1.20
2022-12-12T04:35:32.171Z,-1.20
2022-12-12T04:38:04.555Z,-1.30
2022-12-12T04:40:41.139Z,-1.30
2022-12-12T04:43:17.613Z,-1.30
2022-12-12T04:45:49.269Z,-1.30
2022-12-12T04:48:25.688Z,-1.20
2022-12-12T04:50:54.884Z,-1.30
2022-12-12T04:53:30.219Z,-1.30
2022-12-12T04:56:00.759Z,-1.30
2022-12-12T04:58:28.900Z,-1.30
2022-12-12T05:01:15.547Z,-1.30
2022-12-12T05:03:51.105Z,-1.30
2022-12-12T05:06:48.003Z,-1.30
2022-12-12T05:09:18.429Z,-1.30
2022-12-12T05:11:49.279Z,-1.30
2022-12-12T05:14:18.503Z,-1.30
2022-12-12T05:16:50.979Z,-1.30
2022-12-12T05:19:18.990Z,-1.30
2022-12-12T05:21:46.996Z,-1.40
2022-12-12T05:24:14.959Z,-1.40
2022-12-12T05:26:43.007Z,-1.40
2022-12-12T05:29:11.023Z,-1.40
2022-12-12T05:31:38.892Z,-1.40
2022-12-12T05:34:06.909Z,-1.40
2022-12-12T05:36:34.854Z,-1.40
2022-12-12T05:39:02.818Z,-1.50
2022-12-12T05:41:31.520Z,-1.50
2022-12-12T05:43:59.549Z,-1.60
2022-12-12T05:46:27.766Z,-1.60
2022-12-12T05:49:01.420Z,-1.60
2022-12-12T05:51:29.675Z,-1.70
2022-12-12T05:53:57.630Z,-1.80
2022-12-12T05:56:25.633Z,-1.90
2022-12-12T05:58:53.535Z,-1.90
2022-12-12T06:01:21.519Z,-1.90
2022-12-12T06:03:49.740Z,-1.90
2022-12-12T06:06:20.695Z,-1.90
2022-12-12T06:08:52.986Z,-1.80
2022-12-12T06:11:21.097Z,-1.80
2022-12-12T06:13:49.051Z,-1.80
2022-12-12T06:16:19.586Z,-1.90
2022-12-12T06:18:52.976Z,-2.00
2022-12-12T06:21:21.888Z,-2.00
2022-12-12T06:23:50.437Z,-2.00
2022-12-12T06:26:20.174Z,-2.00
2022-12-12T06:28:48.884Z,-2.10
2022-12-12T06:31:17.977Z,-2.20
2022-12-12T06:33:46.854Z,-2.30
2022-12-12T06:36:20.284Z,-2.40
2022-12-12T06:38:48.283Z,-2.40
2022-12-12T06:41:16.312Z,-2.50
2022-12-12T06:43:44.651Z,-2.50
2022-12-12T06:46:22.431Z,-2.50
2022-12-12T06:48:51.493Z,-2.50
2022-12-12T06:51:25.522Z,-2.50
2022-12-12T06:53:54.051Z,-2.40
2022-12-12T06:56:24.868Z,-2.30
2022-12-12T06:58:54.448Z,-2.30
2022-12-12T07:01:24.495Z,-2.30
2022-12-12T07:03:54.452Z,-2.30
2022-12-12T07:06:26.901Z,-2.40
2022-12-12T07:08:54.883Z,-2.30
2022-12-12T07:11:25.880Z,-2.30
2022-12-12T07:13:57.544Z,-2.20
2022-12-12T07:16:25.526Z,-2.30
2022-12-12T07:18:53.525Z,-2.20
2022-12-12T07:21:22.540Z,-2.20
2022-12-12T07:23:50.554Z,-2.20
2022-12-12T07:26:23.515Z,-2.20
2022-12-12T07:28:52.796Z,-2.20
2022-12-12T07:31:22.815Z,-2.20
2022-12-12T07:33:50.898Z,-2.20
2022-12-12T07:36:19.114Z,-2.30
2022-12-12T07:38:47.220Z,-2.20
2022-12-12T07:41:19.921Z,-2.30
2022-12-12T07:43:51.109Z,-2.30
2022-12-12T07:46:22.306Z,-2.20
2022-12-12T07:48:50.399Z,-2.20
2022-12-12T07:51:19.193Z,-2.10
2022-12-12T07:53:47.912Z,-1.90
2022-12-12T07:56:17.466Z,-1.90
2022-12-12T07:58:46.399Z,-1.70
2022-12-12T08:01:17.417Z,-1.50
2022-12-12T08:03:46.564Z,-1.50
2022-12-12T08:06:17.344Z,-1.60
2022-12-12T08:08:46.327Z,-1.60
2022-12-12T08:11:18.913Z,-1.50
2022-12-12T08:13:54.264Z,-1.50
2022-12-12T08:16:28.085Z,-1.40
2022-12-12T08:18:57.909Z,-1.30
2022-12-12T08:21:27.496Z,-1.20
2022-12-12T08:24:03.534Z,-1.30
2022-12-12T08:26:32.422Z,-1.30
2022-12-12T08:29:00.417Z,-1.20
2022-12-12T08:31:28.828Z,-1.10
2022-12-12T08:33:57.427Z,-1.10
2022-12-12T08:36:28.371Z,-1.00
2022-12-12T08:38:56.319Z,-1.00
2022-12-12T08:41:24.498Z,-1.00
2022-12-12T08:43:52.831Z,-0.90
2022-12-12T08:46:23.012Z,-0.90
2022-12-12T08:48:51.088Z,-0.80
2022-12-12T08:51:19.984Z,-0.70
2022-12-12T08:53:49.459Z,-0.70
2022-12-12T08:56:18.340Z,-0.70
2022-12-12T08:58:47.771Z,-0.70
2022-12-12T09:01:20.681Z,-0.70
2022-12-12T09:03:49.669Z,-0.60
2022-12-12T09:06:18.534Z,-0.60
2022-12-12T09:08:46.982Z,-0.60
2022-12-12T09:11:16.190Z,-0.60
2022-12-12T09:13:47.294Z,-0.50
2022-12-12T09:16:19.649Z,-0.50
2022-12-12T09:18:49.443Z,-0.40
2022-12-12T09:21:18.963Z,-0.40
2022-12-12T09:23:47.851Z,-0.50
2022-12-12T09:26:15.791Z,-0.50
2022-12-12T09:28:43.746Z,-0.40
2022-12-12T09:31:13.571Z,-0.40
2022-12-12T09:33:41.890Z,-0.40
2022-12-12T09:36:10.905Z,-0.50
2022-12-12T09:38:39.572Z,-0.40
2022-12-12T09:41:28.163Z,-0.40
2022-12-12T09:44:08.627Z,-0.40
2022-12-12T09:47:01.478Z,-0.40
2022-12-12T09:49:48.766Z,-0.50
2022-12-12T09:52:25.216Z,-0.50
2022-12-12T09:54:58.666Z,-0.50
2022-12-12T09:57:44.756Z,-0.50
2022-12-12T10:00:15.833Z,-0.50
2022-12-12T10:03:02.110Z,-0.50
2022-12-12T10:05:39.852Z,-0.50
2022-12-12T10:08:13.413Z,-0.60
2022-12-12T10:10:45.278Z,-0.50
2022-12-12T10:13:17.980Z,-0.50
2022-12-12T10:15:55.811Z,-0.30
2022-12-12T10:18:34.526Z,-0.10
2022-12-12T10:21:05.921Z,0.10
2022-12-12T10:23:47.462Z,0.30
2022-12-12T10:26:44.155Z,0.50
2022-12-12T10:29:20.179Z,0.60
2022-12-12T10:31:50.955Z,0.60
2022-12-12T10:34:49.636Z,0.70
2022-12-12T10:37:32.543Z,0.80
2022-12-12T10:40:00.487Z,0.60
2022-12-12T10:42:55.214Z,0.50
2022-12-12T10:45:59.454Z,0.50
2022-12-12T10:48:30.573Z,0.30
2022-12-12T10:51:04.431Z,0.30
2022-12-12T10:53:33.782Z,0.20
2022-12-12T10:56:20.431Z,0.30
2022-12-12T10:59:01.201Z,0.30
2022-12-12T11:04:23.888Z,0.20
2022-12-12T11:06:53.983Z,0.10
2022-12-12T11:09:29.067Z,0.20
2022-12-12T11:12:03.097Z,0.10
2022-12-12T11:14:53.177Z,-0.10
2022-12-12T11:17:28.380Z,-0.10
2022-12-12T11:20:07.113Z,-0.10
2022-12-12T11:22:35.759Z,-0.10
2022-12-12T11:25:03.816Z,-0.10
2022-12-12T11:27:40.709Z,-0.10
2022-12-12T11:30:24.052Z,0.00
2022-12-12T11:32:55.962Z,0.00
2022-12-12T11:35:40.050Z,0.10
2022-12-12T11:38:28.321Z,0.10
2022-12-12T11:41:05.552Z,0.10
2022-12-12T11:43:57.384Z,0.00
2022-12-12T11:46:31.486Z,-0.10
2022-12-12T11:49:02.924Z,-0.10
2022-12-12T11:51:38.886Z,-0.10
2022-12-12T11:54:27.837Z,0.00
2022-12-12T11:57:11.928Z,-0.10
2022-12-12T12:00:17.250Z,0.00
2022-12-12T12:03:08.376Z,0.00
2022-12-12T12:05:39.385Z,-0.10
2022-12-12T12:08:41.194Z,-0.10
2022-12-12T12:11:14.870Z,0.00
2022-12-12T12:14:04.368Z,-0.10
2022-12-12T12:16:53.595Z,-0.10
2022-12-12T12:19:33.514Z,-0.20
2022-12-12T12:22:01.403Z,-0.20
2022-12-12T12:24:47.503Z,-0.10
2022-12-12T12:27:28.755Z,-0.20
2022-12-12T12:30:22.001Z,-0.10
2022-12-12T12:33:14.832Z,-0.10
2022-12-12T12:36:05.111Z,-0.20
2022-12-12T12:38:47.291Z,-0.20
2022-12-12T12:41:33.239Z,-0.20
2022-12-12T12:44:21.100Z,-0.20
2022-12-12T12:47:27.004Z,-0.20
2022-12-12T12:50:07.016Z,-0.10
2022-12-12T12:52:43.007Z,-0.10
2022-12-12T12:55:18.639Z,-0.10
2022-12-12T12:57:49.776Z,-0.10
2022-12-12T13:00:28.371Z,-0.10
2022-12-12T13:03:05.040Z,-0.10
2022-12-12T13:05:42.026Z,-0.10
2022-12-12T13:08:33.638Z,-0.10
2022-12-12T13:11:09.750Z,-0.10
2022-12-12T13:13:47.471Z,-0.20
2022-12-12T13:16:23.690Z,-0.20
2022-12-12T13:19:13.120Z,-0.20
2022-12-12T13:21:50.461Z,-0.20
2022-12-12T13:24:29.212Z,-0.20
2022-12-12T13:27:19.762Z,-0.20
2022-12-12T13:30:04.166Z,-0.20
2022-12-12T13:32:56.682Z,-0.20
2022-12-12T13:35:36.152Z,-0.20
2022-12-12T13:38:05.111Z,-0.10
2022-12-12T13:40:38.339Z,-0.10
2022-12-12T13:43:10.276Z,-0.10
2022-12-12T13:45:49.310Z,-0.10
2022-12-12T13:48:29.609Z,-0.10
2022-12-12T13:51:28.717Z,-0.10
2022-12-12T13:54:17.456Z,-0.10
2022-12-12T13:56:59.465Z,-0.10
2022-12-12T13:59:27.538Z,-0.10
2022-12-12T14:01:58.729Z,-0.10
2022-12-12T14:04:31.364Z,-0.10
2022-12-12T14:07:07.549Z,-0.10
2022-12-12T14:09:48.216Z,-0.10
2022-12-12T14:12:32.057Z,-0.10
2022-12-12T14:15:03.911Z,-0.10
2022-12-12T14:17:42.227Z,-0.10
2022-12-12T14:20:27.196Z,-0.10
2022-12-12T14:23:01.166Z,-0.10
2022-12-12T14:25:39.531Z,-0.10
2022-12-12T14:28:20.919Z,-0.10
2022-12-12T14:30:56.722Z,-0.10
2022-12-12T14:33:40.543Z,-0.10
2022-12-12T14:36:43.560Z,-0.20
2022-12-12T14:39:45.786Z,-0.20
2022-12-12T14:42:23.471Z,-0.30
2022-12-12T14:44:51.387Z,-0.30
2022-12-12T14:47:19.499Z,-0.30
2022-12-12T14:49:47.778Z,-0.40
2022-12-12T14:52:23.717Z,-0.40
2022-12-12T14:54:52.596Z,-0.40
2022-12-12T14:57:24.149Z,-0.40
2022-12-12T14:59:52.290Z,-0.40
2022-12-12T15:02:22.568Z,-0.40
2022-12-12T15:04:55.967Z,-0.40
2022-12-12T15:07:31.732Z,-0.40
2022-12-12T15:09:59.871Z,-0.40
2022-12-12T15:12:34.674Z,-0.40
2022-12-12T15:15:03.567Z,-0.50
2022-12-12T15:17:49.407Z,-0.60
2022-12-12T15:20:21.411Z,-0.60
2022-12-12T15:23:06.555Z,-0.60
2022-12-12T15:25:55.031Z,-0.70
2022-12-12T15:28:25.951Z,-0.60
2022-12-12T15:30:56.213Z,-0.70
2022-12-12T15:33:28.652Z,-0.70
2022-12-12T15:36:06.606Z,-0.70
2022-12-12T15:38:35.601Z,-0.70
2022-12-12T15:41:12.725Z,-0.80
2022-12-12T15:43:42.163Z,-0.80
2022-12-12T15:46:15.363Z,-0.80
2022-12-12T15:48:48.519Z,-0.90
2022-12-12T15:51:24.292Z,-0.90
2022-12-12T15:53:55.155Z,-1.00
2022-12-12T15:56:23.041Z,-1.00
2022-12-12T15:58:53.092Z,-1.00
2022-12-12T16:01:27.631Z,-1.00
2022-12-12T16:04:11.130Z,-1.00
2022-12-12T16:06:45.036Z,-1.00
2022-12-12T16:09:12.950Z,-1.00
2022-12-12T16:11:43.780Z,-1.00
2022-12-12T16:14:41.824Z,-1.00
2022-12-12T16:17:25.913Z,-1.10
2022-12-12T16:23:10.348Z,-1.10
2022-12-12T16:33:22.993Z,-1.20
2022-12-12T16:36:22.630Z,-1.20
2022-12-12T16:38:53.702Z,-1.30
2022-12-12T16:41:22.021Z,-1.30
2022-12-12T16:48:35.998Z,-1.40
2022-12-12T16:51:15.244Z,-1.40
2022-12-12T16:53:52.220Z,-1.50
2022-12-12T16:56:24.120Z,-1.60
2022-12-12T17:01:53.474Z,-1.60
2022-12-12T17:07:32.290Z,-1.60
2022-12-12T17:10:11.901Z,-1.70
2022-12-12T17:12:43.912Z,-1.70
2022-12-12T17:15:23.257Z,-1.80
2022-12-12T17:17:56.657Z,-1.90
2022-12-12T17:20:26.048Z,-1.90
2022-12-12T17:22:56.286Z,-2.00
2022-12-12T17:25:25.119Z,-2.00
2022-12-12T17:27:54.161Z,-2.10
2022-12-12T17:30:23.196Z,-2.10
2022-12-12T17:35:36.317Z,-2.20
2022-12-12T17:38:04.706Z,-2.30
2022-12-12T17:40:32.970Z,-2.40
2022-12-12T17:43:01.913Z,-2.40
2022-12-12T17:45:30.354Z,-2.40
2022-12-12T17:47:59.160Z,-2.40
2022-12-12T17:50:27.125Z,-2.50
2022-12-12T17:52:55.099Z,-2.50
2022-12-12T17:55:52.245Z,-2.50
2022-12-12T17:58:10.964Z,-2.60
2022-12-12T18:00:39.064Z,-2.70
2022-12-12T18:03:07.089Z,-2.70
2022-12-12T18:05:35.092Z,-2.70
2022-12-12T18:08:03.182Z,-2.80
2022-12-12T18:10:31.567Z,-2.90
2022-12-12T18:12:59.699Z,-2.90
2022-12-12T18:15:27.676Z,-2.90
2022-12-12T18:17:55.718Z,-3.00
2022-12-12T18:20:29.526Z,-3.00
2022-12-12T18:22:59.106Z,-3.00
2022-12-12T18:25:27.165Z,-3.00
2022-12-12T18:27:55.466Z,-3.00
2022-12-12T18:30:23.395Z,-3.10
2022-12-12T18:32:51.354Z,-3.10
2022-12-12T18:35:19.360Z,-3.20
2022-12-12T18:37:47.347Z,-3.20
2022-12-12T18:40:15.458Z,-3.30
2022-12-12T18:42:43.511Z,-3.30
2022-12-12T18:45:13.220Z,-3.30
2022-12-12T18:47:44.183Z,-3.40
2022-12-12T18:50:12.542Z,-3.40
2022-12-12T18:52:51.231Z,-3.40
2022-12-12T18:55:19.439Z,-3.50
2022-12-12T18:57:47.507Z,-3.50
2022-12-12T19:00:16.584Z,-3.50
2022-12-12T19:02:44.770Z,-3.50
2022-12-12T19:05:14.573Z,-3.60
2022-12-12T19:07:42.939Z,-3.60
2022-12-12T19:10:11.942Z,-3.70
2022-12-12T19:12:40.038Z,-3.70
2022-12-12T19:15:16.826Z,-3.70
2022-12-12T19:17:45.511Z,-3.70
2022-12-12T19:20:17.069Z,-3.80
2022-12-12T19:22:46.577Z,-3.80
2022-12-12T19:25:19.267Z,-3.80
2022-12-12T19:27:47.491Z,-3.90
2022-12-12T19:30:16.916Z,-4.00
2022-12-12T19:32:50.190Z,-4.00
2022-12-12T19:35:18.510Z,-4.00
2022-12-12T19:37:46.606Z,-3.90
2022-12-12T19:40:15.010Z,-3.90
2022-12-12T19:42:43.132Z,-4.00
2022-12-12T19:45:11.557Z,-4.00
2022-12-12T19:47:39.503Z,-4.00
2022-12-12T19:50:07.651Z,-4.00
2022-12-12T19:52:35.568Z,-4.00
2022-12-12T19:55:03.504Z,-4.10
2022-12-12T19:57:32.049Z,-4.20
2022-12-12T20:00:01.324Z,-4.20
2022-12-12T20:02:30.339Z,-4.30
2022-12-12T20:04:58.327Z,-4.30
2022-12-12T20:07:26.237Z,-4.30
2022-12-12T20:09:54.355Z,-4.40
2022-12-12T20:12:22.302Z,-4.30
2022-12-12T20:14:50.324Z,-4.30
2022-12-12T20:17:19.833Z,-4.30
2022-12-12T20:19:49.898Z,-4.30
2022-12-12T20:22:17.954Z,-4.40
2022-12-12T20:24:46.597Z,-4.40
2022-12-12T20:27:16.384Z,-4.50
2022-12-12T20:29:44.402Z,-4.50
2022-12-12T20:32:14.639Z,-4.60
2022-12-12T20:34:42.658Z,-4.60
2022-12-12T20:37:14.082Z,-4.60
2022-12-12T20:39:44.670Z,-4.60
2022-12-12T20:42:13.823Z,-4.70
2022-12-12T20:44:44.135Z,-4.70
2022-12-12T20:47:15.406Z,-4.60
2022-12-12T20:49:44.578Z,-4.70
2022-12-12T20:52:12.584Z,-4.70
2022-12-12T20:54:40.521Z,-4.70
2022-12-12T20:57:08.668Z,-4.70
2022-12-12T21:02:17.797Z,-4.70
2022-12-12T21:04:45.775Z,-4.70
2022-12-12T21:07:13.695Z,-4.80
2022-12-12T21:09:41.651Z,-4.80
2022-12-12T21:12:10.120Z,-4.80
2022-12-12T21:14:38.203Z,-4.80
2022-12-12T21:17:07.063Z,-4.80
2022-12-12T21:19:35.014Z,-4.80
2022-12-12T21:22:03.000Z,-4.80
2022-12-12T21:24:32.279Z,-4.90
2022-12-12T21:27:00.299Z,-5.00
2022-12-12T21:29:28.203Z,-5.00
2022-12-12T21:31:56.190Z,-5.00
2022-12-12T21:34:24.795Z,-5.10
2022-12-12T21:36:55.496Z,-5.20
2022-12-12T21:39:28.579Z,-5.20
2022-12-12T21:41:57.328Z,-5.20
2022-12-12T21:44:26.212Z,-5.20
2022-12-12T21:46:54.257Z,-5.10
2022-12-12T21:49:28.822Z,-5.20
2022-12-12T21:51:59.294Z,-5.20
2022-12-12T21:54:32.071Z,-5.20
2022-12-12T21:57:08.035Z,-5.20
2022-12-12T21:59:39.771Z,-5.20
2022-12-12T22:02:08.239Z,-5.20
2022-12-12T22:04:36.249Z,-5.20
2022-12-12T22:07:04.263Z,-5.20
2022-12-12T22:09:32.234Z,-5.30
2022-12-12T22:12:04.158Z,-5.30
2022-12-12T22:14:33.257Z,-5.30
2022-12-12T22:17:02.279Z,-5.30
2022-12-12T22:19:30.485Z,-5.30
2022-12-12T22:21:58.387Z,-5.30
2022-12-12T22:24:27.205Z,-5.30
2022-12-12T22:26:55.198Z,-5.30
2022-12-12T22:29:23.229Z,-5.40
2022-12-12T22:31:53.171Z,-5.30
2022-12-12T22:34:24.555Z,-5.40
2022-12-12T22:36:54.582Z,-5.40
2022-12-12T22:39:28.284Z,-5.40
2022-12-12T22:41:57.180Z,-5.50
2022-12-12T22:44:26.791Z,-5.50
2022-12-12T22:46:56.108Z,-5.50
2022-12-12T22:49:29.258Z,-5.40
2022-12-12T22:51:58.519Z,-5.40
2022-12-12T22:54:27.518Z,-5.40
2022-12-12T22:56:55.531Z,-5.40
2022-12-12T22:59:27.145Z,-5.50
2022-12-12T23:01:56.771Z,-5.50
2022-12-12T23:04:24.725Z,-5.50
2022-12-12T23:06:53.937Z,-5.60
2022-12-12T23:09:23.604Z,-5.60
2022-12-12T23:11:51.570Z,-5.70
2022-12-12T23:14:22.947Z,-5.70
2022-12-12T23:16:52.145Z,-5.80
2022-12-12T23:19:23.568Z,-5.80
2022-12-12T23:21:51.527Z,-5.90
2022-12-12T23:24:19.799Z,-5.90
2022-12-12T23:26:50.724Z,-6.00
2022-12-12T23:29:21.301Z,-5.90
2022-12-12T23:31:49.438Z,-6.00
2022-12-12T23:34:21.709Z,-6.00
2022-12-12T23:36:50.841Z,-6.00
2022-12-12T23:39:19.203Z,-6.00
2022-12-12T23:41:47.267Z,-6.00
2022-12-12T23:44:17.060Z,-6.10
2022-12-12T23:46:45.983Z,-6.10
2022-12-12T23:49:13.849Z,-6.00
2022-12-12T23:51:48.135Z,-6.00
2022-12-12T23:54:23.018Z,-6.00
2022-12-12T23:56:52.133Z,-6.00
2022-12-12T23:59:21.729Z,-6.00
